Time;durP1;ratioP1;P1;durP2;ratioP2;P2;SDS_P1;SDS_P2;PMS_P1;PMS_P2;Temp;Humidity;BMP_temperature;BMP_pressure;BME280_temperature;BME280_humidity;BME280_pressure;Samples;Min_cycle;Max_cycle;Signal;HPM_P1;HPM_P2
2022/01/31 00:00:39;;;;;;;25.08;5.55;;;4.40;99.90;;;;;;5115604;27;20043;-91
2022/01/31 00:03:05;;;;;;;19.05;5.68;;;4.40;99.90;;;;;;5099286;27;20096;-91
2022/01/31 00:05:30;;;;;;;24.75;5.80;;;4.50;99.90;;;;;;5116133;27;20039;-91
2022/01/31 00:07:56;;;;;;;20.60;5.72;;;4.50;99.90;;;;;;5098971;27;20045;-91
2022/01/31 00:10:28;;;;;;;21.15;5.40;;;4.50;99.90;;;;;;5115140;27;20042;-91
2022/01/31 00:13:01;;;;;;;23.42;6.70;;;4.50;99.90;;;;;;5098675;27;20074;-90
2022/01/31 00:15:28;;;;;;;26.23;5.53;;;4.50;99.90;;;;;;5115835;27;20373;-91
2022/01/31 00:17:54;;;;;;;23.17;5.82;;;4.60;99.90;;;;;;5114670;27;20101;-90
2022/01/31 00:20:20;;;;;;;28.45;5.55;;;4.60;99.90;;;;;;5114983;27;20078;-91
2022/01/31 00:22:45;;;;;;;26.55;6.28;;;4.60;99.90;;;;;;5115018;27;20130;-91
2022/01/31 00:25:11;;;;;;;23.95;4.60;;;4.60;99.90;;;;;;5098185;27;20039;-91
2022/01/31 00:27:37;;;;;;;22.50;5.50;;;4.60;99.90;;;;;;5098294;27;20523;-90
2022/01/31 00:30:04;;;;;;;18.60;5.80;;;4.70;99.90;;;;;;5097725;27;20046;-91
2022/01/31 00:32:29;;;;;;;20.83;5.43;;;4.70;99.90;;;;;;5115092;27;20035;-91
2022/01/31 00:34:59;;;;;;;21.35;5.68;;;4.70;99.90;;;;;;5115042;27;20050;-91
2022/01/31 00:37:25;;;;;;;19.52;5.68;;;4.60;99.90;;;;;;5115876;27;20051;-91
2022/01/31 00:39:51;;;;;;;20.50;5.30;;;4.70;99.90;;;;;;5097955;27;20054;-91
2022/01/31 00:42:16;;;;;;;20.30;5.50;;;4.70;99.90;;;;;;5115072;27;20066;-91
2022/01/31 00:44:54;;;;;;;22.65;6.10;;;4.70;99.90;;;;;;5115062;27;20046;-91
2022/01/31 00:47:24;;;;;;;17.75;5.28;;;4.70;99.90;;;;;;5098055;27;20034;-91
2022/01/31 00:49:52;;;;;;;16.95;6.05;;;4.70;99.90;;;;;;5114295;27;20074;-91
2022/01/31 00:52:19;;;;;;;20.90;5.80;;;4.70;99.90;;;;;;5098068;27;20046;-91
2022/01/31 00:54:46;;;;;;;19.15;6.03;;;4.70;99.90;;;;;;5098225;27;20062;-91
2022/01/31 00:57:11;;;;;;;18.08;6.10;;;4.70;99.90;;;;;;5097905;27;20051;-91
2022/01/31 00:59:37;;;;;;;20.10;5.88;;;4.70;99.90;;;;;;5114897;27;20099;-91
2022/01/31 01:02:03;;;;;;;18.08;6.43;;;4.70;99.90;;;;;;5106715;27;20560;-90
2022/01/31 01:04:28;;;;;;;18.38;5.75;;;4.70;99.90;;;;;;5104988;27;20079;-90
2022/01/31 01:06:54;;;;;;;18.58;5.82;;;4.70;99.90;;;;;;5086060;28;20039;-91
2022/01/31 01:09:19;;;;;;;20.05;6.40;;;4.70;99.90;;;;;;5094348;28;20048;-91
2022/01/31 01:11:45;;;;;;;19.15;5.88;;;4.70;99.90;;;;;;5094546;28;20085;-91
2022/01/31 01:14:11;;;;;;;16.35;6.00;;;4.70;99.90;;;;;;5094249;28;20055;-91
2022/01/31 01:16:36;;;;;;;18.30;5.85;;;4.70;99.90;;;;;;5100080;27;20114;-91
2022/01/31 01:19:03;;;;;;;18.23;5.50;;;4.70;99.90;;;;;;5114241;27;20461;-91
2022/01/31 01:21:29;;;;;;;19.88;6.38;;;4.70;99.90;;;;;;5114225;27;20095;-90
2022/01/31 01:23:55;;;;;;;20.52;5.93;;;4.70;99.90;;;;;;5114468;27;20047;-91
2022/01/31 01:26:20;;;;;;;17.73;6.80;;;4.70;99.90;;;;;;5114696;27;20050;-91
2022/01/31 01:28:46;;;;;;;19.58;7.32;;;4.70;99.90;;;;;;5114627;27;20046;-91
2022/01/31 01:31:12;;;;;;;24.42;7.63;;;4.70;99.90;;;;;;5113651;27;20500;-91
2022/01/31 01:33:40;;;;;;;22.63;8.07;;;4.70;99.90;;;;;;5114055;27;20047;-91
2022/01/31 01:36:07;;;;;;;19.65;6.75;;;4.70;99.90;;;;;;5114287;27;20055;-92
2022/01/31 01:38:33;;;;;;;19.92;7.53;;;4.70;99.90;;;;;;5097091;27;20561;-91
2022/01/31 01:41:00;;;;;;;17.95;7.63;;;4.60;99.90;;;;;;5113749;27;20047;-91
2022/01/31 01:43:29;;;;;;;20.23;7.95;;;4.60;99.90;;;;;;5114091;27;20508;-90
2022/01/31 01:45:56;;;;;;;20.65;8.18;;;4.60;99.90;;;;;;5097315;27;20043;-91
2022/01/31 01:48:23;;;;;;;16.05;7.57;;;4.60;99.90;;;;;;5114562;28;20042;-91
2022/01/31 01:50:49;;;;;;;18.27;8.93;;;4.50;99.90;;;;;;5096493;27;20039;-91
2022/01/31 01:53:15;;;;;;;19.05;9.13;;;4.40;99.90;;;;;;5113748;27;20419;-91
2022/01/31 01:55:43;;;;;;;22.58;10.40;;;4.30;99.90;;;;;;5113695;27;20046;-92
2022/01/31 01:58:15;;;;;;;20.83;9.70;;;4.20;99.90;;;;;;5113974;28;20410;-91
2022/01/31 02:00:50;;;;;;;19.98;8.70;;;4.10;99.90;;;;;;5113551;27;20563;-91
2022/01/31 02:03:18;;;;;;;20.02;9.40;;;4.10;99.90;;;;;;5096615;28;20526;-91
2022/01/31 02:05:43;;;;;;;20.40;10.30;;;4.00;99.90;;;;;;5113827;28;20043;-90
2022/01/31 02:08:12;;;;;;;21.27;9.57;;;4.00;99.90;;;;;;5114032;28;20475;-91
2022/01/31 02:10:38;;;;;;;21.05;10.13;;;3.90;99.90;;;;;;5113269;28;20461;-90
2022/01/31 02:13:08;;;;;;;23.48;10.80;;;3.90;99.90;;;;;;5113559;28;20047;-90
2022/01/31 02:15:35;;;;;;;22.10;10.38;;;3.80;99.90;;;;;;5096756;28;20086;-91
2022/01/31 02:18:01;;;;;;;26.17;10.68;;;3.80;99.90;;;;;;5114235;27;20043;-91
2022/01/31 02:20:26;;;;;;;18.80;9.50;;;3.80;99.90;;;;;;5116981;27;20110;-91
2022/01/31 02:22:52;;;;;;;18.55;9.65;;;3.80;99.90;;;;;;5117054;27;20543;-91
2022/01/31 02:25:18;;;;;;;22.00;10.43;;;3.90;99.90;;;;;;5134244;27;20452;-91
2022/01/31 02:27:43;;;;;;;22.48;9.93;;;3.90;99.90;;;;;;5134292;27;20061;-91
2022/01/31 02:30:12;;;;;;;24.10;10.48;;;3.90;99.90;;;;;;5117002;27;20454;-91
2022/01/31 02:32:38;;;;;;;21.50;9.40;;;3.90;99.90;;;;;;5116695;27;20047;-91
2022/01/31 02:35:05;;;;;;;19.60;10.18;;;3.90;99.90;;;;;;5134100;27;20054;-90
2022/01/31 02:37:31;;;;;;;21.63;11.25;;;3.90;99.90;;;;;;5116840;27;20045;-91
2022/01/31 02:39:56;;;;;;;25.08;9.95;;;3.90;99.90;;;;;;5133998;27;20059;-91
2022/01/31 02:42:23;;;;;;;20.30;10.40;;;3.90;99.90;;;;;;5134329;27;20047;-91
2022/01/31 02:44:48;;;;;;;20.92;9.52;;;3.90;99.90;;;;;;5134117;27;20435;-91
2022/01/31 02:47:26;;;;;;;19.45;8.80;;;3.90;99.90;;;;;;5134225;27;20541;-91
2022/01/31 02:49:57;;;;;;;17.40;9.60;;;3.90;99.90;;;;;;5116837;27;20035;-91
2022/01/31 02:52:24;;;;;;;16.35;9.68;;;3.90;99.90;;;;;;5133817;27;20081;-91
2022/01/31 02:54:50;;;;;;;18.15;9.50;;;3.90;99.90;;;;;;5133854;27;20046;-92
2022/01/31 02:57:15;;;;;;;15.30;8.50;;;3.90;99.90;;;;;;5116199;27;20095;-91
2022/01/31 02:59:41;;;;;;;16.15;8.40;;;3.90;99.90;;;;;;5133852;27;20133;-92
2022/01/31 03:02:07;;;;;;;14.85;8.20;;;3.90;99.90;;;;;;5116691;27;20042;-91
2022/01/31 03:04:33;;;;;;;12.30;6.72;;;3.90;99.90;;;;;;5134151;27;20098;-91
2022/01/31 03:06:59;;;;;;;10.80;6.63;;;3.80;99.90;;;;;;5117051;27;20487;-91
2022/01/31 03:09:24;;;;;;;12.30;7.20;;;3.80;99.90;;;;;;5133751;27;20046;-91
2022/01/31 03:11:50;;;;;;;13.57;7.35;;;3.80;99.90;;;;;;5133990;27;20042;-92
2022/01/31 03:14:16;;;;;;;14.20;7.85;;;3.80;99.90;;;;;;5120439;27;20061;-91
2022/01/31 03:16:48;;;;;;;13.27;7.60;;;3.70;99.90;;;;;;5130409;27;20519;-91
2022/01/31 03:19:15;;;;;;;11.40;7.13;;;3.70;99.90;;;;;;5100118;27;20395;-92
2022/01/31 03:21:42;;;;;;;12.23;6.60;;;3.70;99.90;;;;;;5100098;27;20050;-91
2022/01/31 03:24:08;;;;;;;11.93;6.90;;;3.70;99.90;;;;;;5099922;27;20058;-91
2022/01/31 03:26:34;;;;;;;11.45;6.80;;;3.70;99.90;;;;;;5100293;27;20100;-92
2022/01/31 03:28:59;;;;;;;10.63;6.57;;;3.60;99.90;;;;;;5099209;27;20039;-91
2022/01/31 03:31:26;;;;;;;12.93;8.18;;;3.70;99.90;;;;;;5099848;27;20054;-91
2022/01/31 03:33:53;;;;;;;11.98;7.85;;;3.70;99.90;;;;;;5116820;27;20058;-92
2022/01/31 03:36:19;;;;;;;14.05;8.35;;;3.60;99.90;;;;;;5099999;27;20499;-91
2022/01/31 03:38:45;;;;;;;14.70;8.38;;;3.70;99.90;;;;;;5116853;27;20076;-91
2022/01/31 03:41:12;;;;;;;13.70;8.07;;;3.70;99.90;;;;;;5116020;27;20089;-91
2022/01/31 03:43:39;;;;;;;13.13;7.80;;;3.70;99.90;;;;;;5098569;27;20579;-90
2022/01/31 03:46:05;;;;;;;14.15;8.05;;;3.80;99.90;;;;;;5116102;27;20134;-91
2022/01/31 03:48:31;;;;;;;13.38;7.88;;;3.90;99.90;;;;;;5116341;27;20399;-91
2022/01/31 03:50:58;;;;;;;14.82;7.85;;;3.90;99.90;;;;;;5115744;27;20043;-91
2022/01/31 03:53:24;;;;;;;15.80;8.23;;;4.00;99.90;;;;;;5098924;27;20507;-91
2022/01/31 03:55:49;;;;;;;14.70;8.32;;;4.00;99.90;;;;;;5115796;27;20043;-91
2022/01/31 03:58:15;;;;;;;17.65;7.85;;;4.10;99.90;;;;;;5098690;27;20127;-92
2022/01/31 04:00:42;;;;;;;16.10;7.60;;;4.20;99.90;;;;;;5115789;27;20043;-91
2022/01/31 04:03:07;;;;;;;16.05;7.80;;;4.30;99.90;;;;;;5098838;27;20047;-91
2022/01/31 04:05:33;;;;;;;18.73;8.05;;;4.30;99.90;;;;;;5099495;27;20039;-91
2022/01/31 04:07:59;;;;;;;15.70;7.75;;;4.40;99.90;;;;;;5115938;27;20500;-91
2022/01/31 04:10:26;;;;;;;16.88;8.82;;;4.50;99.90;;;;;;5098716;27;20075;-91
2022/01/31 04:12:52;;;;;;;16.25;7.45;;;4.50;99.90;;;;;;5098234;27;20051;-90
2022/01/31 04:15:18;;;;;;;18.20;8.95;;;4.60;99.90;;;;;;5115675;27;20047;-91
2022/01/31 04:17:44;;;;;;;16.90;7.40;;;4.70;99.90;;;;;;5114917;27;20122;-91
2022/01/31 04:20:10;;;;;;;18.40;7.38;;;4.80;99.90;;;;;;5115404;27;20047;-91
2022/01/31 04:22:52;;;;;;;18.20;6.07;;;4.90;99.90;;;;;;5115479;27;20095;-91
2022/01/31 04:25:29;;;;;;;14.20;5.75;;;5.00;99.90;;;;;;5114785;27;20507;-91
2022/01/31 04:28:02;;;;;;;19.33;6.50;;;5.10;99.90;;;;;;5115609;27;20062;-91
2022/01/31 04:30:36;;;;;;;18.55;5.45;;;5.10;99.90;;;;;;5098345;27;20051;-91
2022/01/31 04:33:01;;;;;;;14.75;4.10;;;5.20;99.90;;;;;;5098640;27;20035;-91
2022/01/31 04:35:27;;;;;;;15.45;4.18;;;5.30;99.90;;;;;;5115701;27;20047;-91
2022/01/31 04:37:53;;;;;;;18.60;3.88;;;5.40;99.90;;;;;;5115521;27;20546;-91
2022/01/31 04:40:18;;;;;;;20.75;4.25;;;5.50;99.90;;;;;;5114892;27;20047;-91
2022/01/31 04:42:45;;;;;;;13.10;3.25;;;5.50;99.90;;;;;;5115123;27;20050;-91
2022/01/31 04:45:11;;;;;;;17.50;3.40;;;5.60;99.90;;;;;;5115342;27;20126;-91
2022/01/31 04:47:37;;;;;;;18.20;3.38;;;5.70;99.90;;;;;;5098243;27;20050;-91
2022/01/31 04:50:04;;;;;;;14.85;3.20;;;5.80;99.90;;;;;;5097933;27;20125;-91
2022/01/31 04:52:30;;;;;;;17.92;3.95;;;5.90;99.90;;;;;;5115190;27;20126;-91
2022/01/31 04:54:56;;;;;;;18.00;3.65;;;6.00;99.90;;;;;;5115592;27;20129;-91
2022/01/31 04:57:21;;;;;;;17.65;4.03;;;6.00;99.90;;;;;;5115218;27;20404;-91
2022/01/31 04:59:48;;;;;;;22.30;3.17;;;6.00;99.90;;;;;;5114706;27;20523;-91
2022/01/31 05:02:14;;;;;;;11.82;2.58;;;6.00;99.90;;;;;;5114984;27;20051;-92
2022/01/31 05:04:40;;;;;;;16.05;3.22;;;6.00;99.90;;;;;;5114904;27;20050;-92
2022/01/31 05:07:05;;;;;;;12.88;3.33;;;5.90;99.90;;;;;;5114759;27;20572;-92
2022/01/31 05:09:31;;;;;;;17.20;3.70;;;5.90;99.90;;;;;;5096976;27;20046;-92
2022/01/31 05:11:56;;;;;;;16.67;3.47;;;6.00;99.90;;;;;;5114423;27;20039;-92
2022/01/31 05:14:22;;;;;;;17.25;3.65;;;6.00;99.90;;;;;;5097392;27;20105;-92
2022/01/31 05:16:47;;;;;;;14.85;2.78;;;6.00;99.90;;;;;;5113736;27;20043;-91
2022/01/31 05:19:13;;;;;;;18.65;3.67;;;6.00;99.90;;;;;;5114437;27;20419;-91
2022/01/31 05:21:39;;;;;;;17.58;3.22;;;6.00;99.90;;;;;;5114413;27;20050;-91
2022/01/31 05:24:06;;;;;;;23.92;3.95;;;6.00;99.90;;;;;;5097613;27;20036;-91
2022/01/31 05:26:32;;;;;;;19.92;3.88;;;6.00;99.90;;;;;;5114708;27;20047;-91
2022/01/31 05:28:58;;;;;;;21.52;3.80;;;6.00;99.90;;;;;;5097123;27;20047;-92
2022/01/31 05:31:24;;;;;;;21.30;3.50;;;6.00;99.90;;;;;;5114264;27;20103;-92
2022/01/31 05:33:49;;;;;;;17.73;3.38;;;5.90;99.90;;;;;;5114078;27;20039;-91
2022/01/31 05:36:15;;;;;;;21.63;3.75;;;5.90;99.90;;;;;;5113369;27;20503;-91
2022/01/31 05:38:41;;;;;;;24.80;3.63;;;5.80;99.90;;;;;;5115660;27;20111;-92
2022/01/31 05:41:10;;;;;;;20.40;3.75;;;5.80;99.90;;;;;;5098198;27;20139;-92
2022/01/31 05:43:36;;;;;;;21.50;3.63;;;5.80;99.90;;;;;;5114953;28;20047;-91
2022/01/31 05:46:02;;;;;;;17.40;3.72;;;5.80;99.90;;;;;;5115096;27;20043;-92
2022/01/31 05:48:28;;;;;;;13.07;2.75;;;5.90;99.90;;;;;;5115414;27;20054;-92
2022/01/31 05:51:20;;;;;;;12.18;2.30;;;5.90;99.90;;;;;;5114218;28;20039;-90
2022/01/31 05:53:47;;;;;;;14.48;2.33;;;5.80;99.90;;;;;;4996374;28;20132;-92
2022/01/31 05:56:13;;;;;;;7.57;1.33;;;5.70;99.90;;;;;;5012843;28;20127;-92
2022/01/31 05:58:40;;;;;;;7.95;1.55;;;5.60;99.90;;;;;;5012535;28;20132;-92
2022/01/31 06:01:06;;;;;;;8.50;1.70;;;5.50;99.90;;;;;;5028754;28;20053;-92
2022/01/31 06:03:32;;;;;;;6.65;1.48;;;5.40;99.90;;;;;;4995805;28;20050;-91
2022/01/31 06:05:57;;;;;;;6.60;1.38;;;5.30;99.90;;;;;;5028975;28;20042;-92
2022/01/31 06:08:23;;;;;;;8.25;1.40;;;5.30;99.90;;;;;;4996114;28;20049;-92
2022/01/31 06:10:49;;;;;;;4.75;0.88;;;5.20;99.90;;;;;;5011982;28;20085;-91
2022/01/31 06:13:16;;;;;;;4.63;1.10;;;5.20;99.90;;;;;;5012607;28;20177;-91
2022/01/31 06:15:42;;;;;;;6.40;1.27;;;5.20;99.90;;;;;;5012272;28;20049;-91
2022/01/31 06:18:08;;;;;;;8.35;1.50;;;5.10;99.90;;;;;;5025295;28;20115;-91
2022/01/31 06:20:34;;;;;;;7.22;1.25;;;5.10;99.90;;;;;;5026151;28;20034;-92
2022/01/31 06:22:59;;;;;;;5.97;1.10;;;5.10;99.90;;;;;;5004549;28;20050;-91
2022/01/31 06:25:25;;;;;;;8.45;1.42;;;5.10;99.90;;;;;;5001578;28;20135;-91
2022/01/31 06:27:52;;;;;;;6.75;1.33;;;5.10;99.90;;;;;;4997773;28;20265;-91
2022/01/31 06:30:18;;;;;;;9.68;1.45;;;5.10;99.90;;;;;;5024504;28;20051;-91
2022/01/31 06:32:43;;;;;;;7.03;1.27;;;5.10;99.90;;;;;;5093015;28;20104;-91
2022/01/31 06:35:09;;;;;;;12.05;1.92;;;5.10;99.90;;;;;;5076141;28;20059;-91
2022/01/31 06:37:35;;;;;;;8.63;1.38;;;5.00;99.90;;;;;;5093219;28;20059;-90
2022/01/31 06:40:01;;;;;;;8.68;1.70;;;5.10;99.90;;;;;;5092258;28;20529;-91
2022/01/31 06:42:27;;;;;;;12.48;1.95;;;5.10;99.90;;;;;;5076047;28;20101;-90
2022/01/31 06:44:53;;;;;;;11.63;1.65;;;5.10;99.90;;;;;;5092461;28;20051;-91
2022/01/31 06:47:19;;;;;;;12.07;1.45;;;5.10;99.90;;;;;;5093511;28;20400;-91
2022/01/31 06:49:46;;;;;;;14.35;2.22;;;5.10;99.90;;;;;;5110915;27;20054;-91
2022/01/31 06:52:11;;;;;;;13.45;2.17;;;5.20;99.90;;;;;;5117251;27;20039;-92
2022/01/31 06:54:37;;;;;;;10.95;1.90;;;5.20;99.90;;;;;;5117616;27;20103;-91
2022/01/31 06:57:04;;;;;;;9.63;1.77;;;5.20;99.90;;;;;;5117591;27;20432;-91
2022/01/31 06:59:30;;;;;;;11.82;2.50;;;5.20;99.90;;;;;;5116470;27;20047;-91
2022/01/31 07:01:56;;;;;;;14.10;1.92;;;5.30;99.90;;;;;;5099664;27;20392;-91
2022/01/31 07:04:21;;;;;;;13.20;2.60;;;5.30;99.90;;;;;;5116535;27;20047;-92
2022/01/31 07:06:47;;;;;;;13.07;1.98;;;5.30;99.90;;;;;;5117015;27;20079;-91
2022/01/31 07:09:13;;;;;;;12.68;2.30;;;5.30;99.90;;;;;;5116489;27;20051;-91
2022/01/31 07:11:41;;;;;;;12.90;1.88;;;5.30;99.90;;;;;;5116552;27;20096;-91
2022/01/31 07:14:29;;;;;;;11.73;2.22;;;5.30;99.90;;;;;;5116476;27;20051;-91
2022/01/31 07:16:52;;;;;;;10.45;1.80;;;5.40;99.90;;;;;;5117305;27;20047;-91
2022/01/31 07:19:21;;;;;;;12.52;2.00;;;5.50;99.90;;;;;;5099598;27;20699;-92
2022/01/31 07:21:49;;;;;;;9.20;1.60;;;5.50;99.90;;;;;;5117004;27;20062;-91
2022/01/31 07:25:32;;;;;;;9.60;1.75;;;5.50;99.90;;;;;;5116365;27;20103;-91
2022/01/31 07:27:12;;;;;;;7.82;1.83;;;5.50;99.90;;;;;;5095072;27;20086;-91
2022/01/31 07:29:38;;;;;;;6.88;1.42;;;5.50;99.90;;;;;;5116532;27;20050;-91
2022/01/31 07:32:07;;;;;;;7.85;1.42;;;5.40;99.90;;;;;;5099790;27;20039;-92
2022/01/31 07:34:33;;;;;;;6.25;1.35;;;5.40;99.90;;;;;;5116533;27;20054;-90
2022/01/31 07:36:58;;;;;;;7.22;1.42;;;5.40;99.90;;;;;;5116453;27;20130;-91
2022/01/31 07:39:24;;;;;;;9.63;1.30;;;5.40;99.90;;;;;;5116126;27;20051;-92
2022/01/31 07:41:50;;;;;;;15.40;2.55;;;5.40;99.90;;;;;;5099392;27;20079;-92
2022/01/31 07:44:16;;;;;;;10.50;2.40;;;5.40;99.90;;;;;;5116233;27;20081;-91
2022/01/31 07:46:42;;;;;;;10.02;2.38;;;5.30;99.90;;;;;;5116272;27;20080;-91
2022/01/31 07:49:08;;;;;;;7.97;1.67;;;5.30;99.90;;;;;;5115840;27;20219;-91
2022/01/31 07:51:37;;;;;;;8.18;1.23;;;5.30;99.90;;;;;;5099321;27;20043;-91
2022/01/31 07:54:03;;;;;;;9.00;1.40;;;5.30;99.90;;;;;;5099164;27;20051;-91
2022/01/31 07:56:28;;;;;;;8.05;1.50;;;5.30;99.90;;;;;;5116029;27;20204;-91
2022/01/31 07:58:54;;;;;;;10.02;1.52;;;5.30;99.90;;;;;;5115371;28;20062;-92
2022/01/31 08:01:20;;;;;;;9.07;1.35;;;5.30;99.90;;;;;;5115159;27;20046;-91
2022/01/31 08:03:47;;;;;;;12.20;1.80;;;5.30;99.90;;;;;;5115443;27;20122;-91
2022/01/31 08:06:13;;;;;;;10.25;1.65;;;5.30;99.90;;;;;;5115355;27;20035;-90
2022/01/31 08:08:39;;;;;;;11.40;2.20;;;5.30;99.90;;;;;;5116123;27;20039;-92
2022/01/31 08:11:05;;;;;;;9.23;1.90;;;5.40;99.90;;;;;;5115482;27;20539;-92
2022/01/31 08:13:34;;;;;;;10.07;2.28;;;5.40;99.90;;;;;;5115873;27;20047;-91
2022/01/31 08:18:41;;;;;;;13.95;1.88;;;5.50;99.90;;;;;;5097816;27;20606;-91
2022/01/31 08:21:08;;;;;;;13.13;2.25;;;5.50;99.90;;;;;;5076470;28;20534;-91
2022/01/31 08:23:34;;;;;;;10.10;2.22;;;5.50;99.90;;;;;;5093889;28;20052;-90
2022/01/31 08:26:02;;;;;;;14.25;2.42;;;5.50;99.90;;;;;;5077656;28;20036;-90
2022/01/31 08:28:38;;;;;;;10.18;1.65;;;5.50;99.90;;;;;;5094925;28;20043;-90
2022/01/31 08:31:14;;;;;;;14.55;2.90;;;5.50;99.90;;;;;;5094857;28;20035;-91
2022/01/31 08:36:09;;;;;;;17.98;2.90;;;5.60;99.90;;;;;;5100211;27;20055;-90
2022/01/31 08:38:38;;;;;;;13.43;2.20;;;5.60;99.90;;;;;;5088546;27;20055;-90
2022/01/31 08:41:04;;;;;;;12.10;2.13;;;5.70;99.90;;;;;;5104379;27;20052;-90
2022/01/31 08:43:32;;;;;;;13.98;2.88;;;5.70;99.90;;;;;;5105243;27;20168;-90
2022/01/31 08:45:58;;;;;;;9.65;2.15;;;5.80;99.90;;;;;;5114926;27;20058;-90
2022/01/31 08:48:25;;;;;;;11.38;2.13;;;5.80;99.90;;;;;;5098140;27;20035;-90
2022/01/31 08:50:51;;;;;;;10.77;2.10;;;5.90;99.90;;;;;;5097427;27;20039;-89
2022/01/31 08:53:17;;;;;;;10.48;1.83;;;5.90;99.90;;;;;;5110629;27;20499;-90
2022/01/31 08:55:49;;;;;;;12.13;1.83;;;6.00;99.90;;;;;;5085788;27;20070;-90
2022/01/31 08:58:15;;;;;;;17.13;2.88;;;6.00;99.90;;;;;;5086932;27;20063;-90
2022/01/31 09:00:42;;;;;;;15.18;2.78;;;6.10;99.90;;;;;;5122907;27;20104;-91
2022/01/31 09:05:36;;;;;;;18.48;3.42;;;6.20;99.90;;;;;;5134712;27;20392;-91
2022/01/31 09:08:02;;;;;;;15.30;3.05;;;6.20;99.90;;;;;;5135288;27;20095;-91
2022/01/31 09:10:27;;;;;;;12.52;2.92;;;6.30;99.90;;;;;;5134675;27;20129;-90
2022/01/31 09:12:53;;;;;;;15.38;2.83;;;6.30;99.90;;;;;;5117552;27;20542;-90
2022/01/31 09:15:19;;;;;;;16.15;3.38;;;6.40;99.90;;;;;;5118407;27;20056;-90
2022/01/31 09:17:44;;;;;;;13.48;2.35;;;6.40;99.90;;;;;;5135532;27;20061;-91
2022/01/31 09:20:10;;;;;;;14.80;2.08;;;6.50;99.90;;;;;;5134699;27;20530;-91
2022/01/31 09:22:36;;;;;;;10.50;2.55;;;6.50;99.90;;;;;;5134454;27;20050;-91
2022/01/31 09:25:02;;;;;;;10.63;1.77;;;6.60;99.90;;;;;;5134095;27;20046;-90
2022/01/31 09:27:28;;;;;;;11.55;1.98;;;6.60;99.90;;;;;;5134488;27;20039;-91
2022/01/31 09:29:54;;;;;;;13.30;2.42;;;6.70;99.90;;;;;;5134778;27;20741;-90
2022/01/31 09:32:23;;;;;;;9.40;2.22;;;6.70;99.90;;;;;;5134734;27;20035;-91
2022/01/31 09:34:50;;;;;;;11.18;1.77;;;6.80;99.90;;;;;;5134703;27;20051;-90
2022/01/31 09:37:19;;;;;;;11.70;1.95;;;6.80;99.90;;;;;;5117738;27;20058;-91
2022/01/31 09:39:46;;;;;;;10.45;1.80;;;6.90;99.90;;;;;;5134149;27;20053;-92
2022/01/31 09:42:14;;;;;;;9.90;1.55;;;6.90;99.90;;;;;;5134752;27;20086;-91
2022/01/31 09:44:48;;;;;;;12.60;2.30;;;6.90;99.90;;;;;;5116882;27;20068;-90
2022/01/31 09:47:34;;;;;;;9.93;1.88;;;6.90;99.90;;;;;;5117029;27;20544;-91
2022/01/31 09:50:00;;;;;;;12.50;2.13;;;7.00;99.90;;;;;;5133341;27;20050;-91
2022/01/31 09:52:25;;;;;;;8.52;1.50;;;7.10;99.90;;;;;;5134073;27;20194;-92
2022/01/31 09:54:51;;;;;;;8.80;1.60;;;7.20;99.90;;;;;;5134278;27;20090;-91
2022/01/31 09:57:19;;;;;;;8.40;1.45;;;7.20;99.90;;;;;;5105723;27;20050;-91
2022/01/31 09:59:45;;;;;;;12.23;1.70;;;7.30;99.90;;;;;;5104820;28;20047;-91
2022/01/31 10:02:12;;;;;;;12.95;2.20;;;7.40;99.90;;;;;;5114153;28;20055;-91
2022/01/31 10:04:43;;;;;;;12.00;2.13;;;7.50;99.90;;;;;;5113492;28;20043;-92
2022/01/31 10:07:09;;;;;;;13.48;2.40;;;7.50;99.90;;;;;;5087688;28;20096;-91
2022/01/31 10:09:35;;;;;;;11.75;1.75;;;7.60;99.90;;;;;;5102265;28;20082;-91
2022/01/31 10:16:26;;;;;;;10.82;1.60;;;7.70;99.90;;;;;;5103771;28;20675;-91
2022/01/31 10:18:01;;;;;;;8.85;2.13;;;7.80;99.90;;;;;;5103649;28;20089;-91
2022/01/31 10:20:29;;;;;;;10.02;1.95;;;7.80;99.90;;;;;;5102473;28;20109;-91
2022/01/31 10:23:04;;;;;;;22.80;2.83;;;7.90;99.90;;;;;;5103209;27;20134;-91
2022/01/31 10:25:32;;;;;;;11.35;1.63;;;7.90;99.90;;;;;;5106721;27;20561;-91
2022/01/31 10:27:58;;;;;;;10.60;1.70;;;8.00;99.90;;;;;;5089242;27;20052;-92
2022/01/31 10:30:27;;;;;;;8.65;2.05;;;8.10;99.90;;;;;;5090948;27;20031;-91
2022/01/31 10:32:55;;;;;;;11.85;2.03;;;8.20;99.90;;;;;;5107392;27;20104;-91
2022/01/31 10:35:22;;;;;;;12.43;2.10;;;8.20;99.90;;;;;;5089240;28;20043;-91
2022/01/31 10:37:50;;;;;;;13.55;1.70;;;8.30;99.90;;;;;;5107100;27;20054;-92
2022/01/31 10:51:52;;;;;;;11.45;2.30;;;8.40;99.90;;;;;;5117075;27;20043;-90
2022/01/31 10:56:50;;;;;;;12.05;2.00;;;8.50;99.90;;;;;;5117677;27;20043;-91
2022/01/31 10:59:20;;;;;;;9.27;2.22;;;8.70;99.90;;;;;;5116937;27;20051;-91
2022/01/31 11:01:47;;;;;;;11.68;2.33;;;8.70;99.90;;;;;;5131700;27;20133;-91
2022/01/31 11:04:15;;;;;;;7.72;1.60;;;8.80;99.90;;;;;;5128612;27;20055;-90
2022/01/31 11:06:49;;;;;;;12.02;3.38;;;8.80;99.90;;;;;;5102494;27;20066;-91
2022/01/31 11:09:16;;;;;;;12.70;4.97;;;8.90;99.90;;;;;;5118567;27;20082;-90
2022/01/31 11:11:50;;;;;;;13.20;3.65;;;9.10;99.90;;;;;;5117051;27;20172;-91
2022/01/31 11:14:17;;;;;;;14.10;3.47;;;9.30;99.90;;;;;;5099326;27;20051;-91
2022/01/31 11:16:45;;;;;;;10.88;1.90;;;9.50;99.90;;;;;;5122333;27;20053;-90
2022/01/31 11:19:12;;;;;;;9.07;1.75;;;9.70;99.90;;;;;;5137173;27;20122;-92
2022/01/31 11:21:44;;;;;;;9.70;1.75;;;9.80;99.90;;;;;;5120385;27;20051;-91
2022/01/31 11:24:25;;;;;;;9.18;1.60;;;10.00;99.90;;;;;;5136626;27;20058;-91
2022/01/31 11:27:09;;;;;;;9.05;1.80;;;10.10;99.90;;;;;;5137299;27;20047;-91
2022/01/31 11:29:42;;;;;;;10.65;1.63;;;10.30;99.90;;;;;;5119632;27;20078;-91
2022/01/31 11:32:08;;;;;;;9.45;2.10;;;10.40;99.90;;;;;;5120163;27;20460;-91
2022/01/31 11:34:39;;;;;;;10.65;1.98;;;10.50;99.90;;;;;;5136355;27;20133;-91
2022/01/31 11:37:09;;;;;;;11.15;2.00;;;10.70;99.90;;;;;;5137069;27;20043;-91
2022/01/31 11:39:38;;;;;;;10.73;2.40;;;10.80;99.90;;;;;;5117784;27;20058;-92
2022/01/31 11:42:05;;;;;;;10.85;2.15;;;10.90;99.90;;;;;;5119471;27;20588;-92
2022/01/31 11:44:51;;;;;;;10.93;2.28;;;11.10;99.90;;;;;;5136384;27;20082;-91
2022/01/31 11:47:23;;;;;;;10.80;2.20;;;11.30;99.90;;;;;;5119410;27;20121;-91
2022/01/31 11:49:58;;;;;;;11.48;2.30;;;11.40;99.90;;;;;;5119530;27;20514;-92
2022/01/31 11:52:25;;;;;;;14.23;2.60;;;11.50;99.90;;;;;;5119717;27;20171;-92
2022/01/31 11:55:02;;;;;;;13.63;2.72;;;11.60;99.90;;;;;;5137180;27;20050;-92
2022/01/31 11:57:30;;;;;;;10.80;2.47;;;11.70;99.90;;;;;;5119484;27;20504;-92
2022/01/31 12:00:03;;;;;;;14.30;2.80;;;11.90;99.90;;;;;;5135913;27;20464;-92
2022/01/31 12:02:39;;;;;;;14.27;2.92;;;12.20;99.90;;;;;;5119372;27;20499;-92
2022/01/31 12:05:08;;;;;;;12.80;2.95;;;12.30;99.90;;;;;;5119198;27;20039;-92
2022/01/31 12:07:40;;;;;;;11.57;2.30;;;12.50;99.90;;;;;;5119545;27;20476;-93
2022/01/31 12:10:18;;;;;;;12.30;2.47;;;12.60;99.90;;;;;;5118957;27;20100;-92
2022/01/31 12:16:23;;;;;;;13.32;3.42;;;13.00;99.90;;;;;;5136520;27;20046;-92
2022/01/31 12:23:54;;;;;;;14.73;3.38;;;12.90;98.80;;;;;;5136102;27;20047;-92
2022/01/31 12:26:32;;;;;;;13.73;2.83;;;12.90;99.20;;;;;;5119284;27;20069;-92
2022/01/31 12:29:01;;;;;;;14.23;3.25;;;13.00;98.70;;;;;;5133755;27;20762;-92
2022/01/31 12:31:34;;;;;;;16.23;3.97;;;13.00;98.30;;;;;;5105724;27;20086;-91
2022/01/31 12:34:01;;;;;;;13.57;3.08;;;13.00;98.50;;;;;;5088018;27;20047;-91
2022/01/31 12:36:36;;;;;;;14.10;2.75;;;12.90;98.50;;;;;;5095434;28;20097;-92
2022/01/31 12:42:14;;;;;;;13.70;2.88;;;13.30;96.00;;;;;;5094651;28;20134;-93
2022/01/31 12:44:41;;;;;;;11.30;2.83;;;13.10;96.00;;;;;;5094394;28;20056;-92
2022/01/31 12:47:17;;;;;;;10.93;2.63;;;12.90;96.10;;;;;;5093830;27;20433;-92
2022/01/31 12:49:44;;;;;;;11.43;2.47;;;12.70;95.90;;;;;;5097643;27;20043;-91
2022/01/31 12:52:12;;;;;;;14.35;2.72;;;12.40;96.20;;;;;;5098034;27;20047;-91
2022/01/31 12:54:39;;;;;;;11.63;2.70;;;12.20;96.00;;;;;;5114998;27;20043;-92
2022/01/31 12:57:13;;;;;;;13.90;2.75;;;12.00;96.60;;;;;;5115062;27;20057;-91
2022/01/31 12:59:41;;;;;;;15.07;3.17;;;11.80;96.60;;;;;;5097709;27;20039;-91
2022/01/31 13:02:09;;;;;;;10.98;2.35;;;11.70;96.80;;;;;;5113988;27;20085;-92
2022/01/31 13:04:36;;;;;;;12.13;2.55;;;11.60;96.60;;;;;;5114248;27;20055;-91
2022/01/31 13:07:08;;;;;;;12.23;2.95;;;11.40;96.90;;;;;;5114263;27;20043;-91
2022/01/31 13:09:37;;;;;;;12.88;2.03;;;11.30;97.30;;;;;;5114262;27;20130;-91
2022/01/31 13:12:16;;;;;;;14.82;2.70;;;11.30;97.60;;;;;;5114162;27;20039;-91
2022/01/31 13:14:51;;;;;;;12.73;2.70;;;11.20;97.00;;;;;;5097170;27;20051;-91
2022/01/31 13:17:25;;;;;;;11.13;2.28;;;11.10;97.50;;;;;;5114405;27;20391;-90
2022/01/31 13:19:53;;;;;;;15.13;2.50;;;11.00;97.80;;;;;;5097243;27;20399;-91
2022/01/31 13:22:33;;;;;;;13.38;2.22;;;10.90;98.10;;;;;;5114538;27;20507;-91
2022/01/31 13:25:01;;;;;;;13.57;2.50;;;10.90;98.30;;;;;;5096935;27;20054;-91